Tasman Sea — WDB5559 — position and weather

sailwx.info

Track history (hours):
 
Tides and Currents Weather Stations Pressure Air Temp Water Temp Dewpoint Dewpoint Depression Visibility Wind Speed Wind Dir Waves Ship Positions

Tasman Sea

Owner: Kirby Offshore Marine, LLC, Staten Island, NY. More information available from US FCC via Universal Licensing System and Coast Guard Vessel Documentation Center.

Last reported at 2014-Dec-20 19:33 UTC. Time now 2014-Dec-22 19:55 UTC.
Position N 42°23' W 070°51'.

Length 38 m; draft 5 m.

Type: Tug. MMSI: 366910960.

Date/timePositionNaut miles runAvg speedWind from/ knotsBaromVisibWave heightAir tempDewpointWater temp
2014-Dec-20 19:33N 42°23' W 070°51'50 5.6
2014-Dec-20 10:32N 41°33' W 070°46'8 7.5
2014-Dec-20 09:30N 41°29' W 070°55'7 7.8
2014-Dec-20 08:34N 41°25' W 071°03'7 7.3
2014-Dec-20 07:34N 41°19' W 071°09'7 7.2
2014-Dec-20 06:33N 41°13' W 071°14'7 7.0
2014-Dec-20 05:34N 41°09' W 071°21'7 7.0
2014-Dec-20 04:33N 41°06' W 071°30'7 7.1
2014-Dec-20 03:33N 41°04' W 071°39'7 7.1
2014-Dec-20 02:33N 41°01' W 071°47'7 6.9
2014-Dec-20 01:33N 40°58' W 071°56'7 7.4
2014-Dec-20 00:33N 40°55' W 072°05'8 7.5
2014-Dec-19 23:33N 40°53' W 072°14'7 7.4
2014-Dec-19 22:33N 40°50' W 072°23'7 7.3
2014-Dec-19 21:33N 40°47' W 072°32'7 7.2
2014-Dec-19 20:33N 40°44' W 072°41'30 7.1
2014-Dec-19 16:19N 40°33' W 073°18'7 7.2
2014-Dec-19 15:23N 40°32' W 073°26'7 7.5
2014-Dec-19 14:28N 40°30' W 073°35'7 7.5
2014-Dec-19 13:30N 40°29' W 073°44'7 7.6
2014-Dec-19 12:33N 40°27' W 073°54'15 6.6
2014-Dec-19 10:13N 40°30' W 074°13'7 0.4
2014-Dec-18 17:25N 40°37' W 074°12'5 6.1
2014-Dec-18 16:33N 40°39' W 074°06'3 3.0
2014-Dec-18 15:30N 40°40' W 074°02'0 0.0
2014-Dec-18 14:30N 40°40' W 074°02'0 0.0
2014-Dec-18 13:33N 40°40' W 074°02'0 0.0
2014-Dec-18 12:33N 40°40' W 074°02'0 0.2
2014-Dec-18 11:33N 40°40' W 074°02'0 0.0
2014-Dec-18 10:33N 40°40' W 074°02'0 0.0
2014-Dec-18 09:30N 40°40' W 074°02'0 0.0
2014-Dec-18 08:32N 40°40' W 074°02'0 0.1
2014-Dec-18 07:32N 40°40' W 074°02'0 0.2
2014-Dec-18 06:32N 40°40' W 074°02'0 0.1
2014-Dec-18 05:32N 40°40' W 074°02'0 0.0
2014-Dec-18 04:32N 40°40' W 074°02'0 0.0
2014-Dec-18 03:32N 40°40' W 074°02'0 0.0
2014-Dec-18 02:32N 40°40' W 074°02'0 0.0
2014-Dec-18 01:32N 40°40' W 074°02'0 0.0
2014-Dec-18 00:32N 40°40' W 074°02'0 0.1
2014-Dec-17 23:32N 40°40' W 074°02'0 0.2
2014-Dec-17 22:32N 40°40' W 074°02'0 0.1
2014-Dec-17 21:32N 40°40' W 074°02'0 0.1
2014-Dec-17 20:32N 40°40' W 074°02'0 0.0
2014-Dec-17 19:32N 40°40' W 074°02'0 0.1
2014-Dec-17 18:29N 40°40' W 074°02'0 0.1
2014-Dec-17 17:32N 40°40' W 074°02'0 0.0
2014-Dec-17 16:32N 40°40' W 074°02'0 0.0
2014-Dec-17 15:32N 40°40' W 074°02'0 0.0
2014-Dec-17 14:32N 40°40' W 074°02'0 0.0
2014-Dec-17 13:32N 40°40' W 074°02'0 0.0
2014-Dec-17 12:29N 40°40' W 074°02'0 0.1
2014-Dec-17 11:32N 40°40' W 074°02'0 0.2
2014-Dec-17 10:32N 40°40' W 074°02'0 0.0
2014-Dec-17 09:32N 40°40' W 074°02'0 0.0
2014-Dec-17 08:29N 40°40' W 074°02'0 0.0
2014-Dec-17 07:32N 40°40' W 074°02'0 0.2
2014-Dec-17 06:32N 40°40' W 074°02'0 0.1
2014-Dec-17 05:32N 40°40' W 074°02'0 0.0
2014-Dec-17 04:32N 40°40' W 074°02'0 0.0
2014-Dec-17 03:32N 40°40' W 074°02'0 0.0
2014-Dec-17 02:32N 40°40' W 074°02'0 0.0
2014-Dec-17 01:32N 40°40' W 074°02'0 0.0
2014-Dec-17 00:32N 40°40' W 074°02'0 0.0
2014-Dec-16 23:32N 40°40' W 074°02'0 0.2
2014-Dec-16 22:32N 40°40' W 074°02'0 0.0
2014-Dec-16 21:32N 40°40' W 074°02'1 1.1
2014-Dec-16 20:33N 40°40' W 074°03'6 5.5
2014-Dec-16 19:33N 40°39' W 074°10'3 2.4
2014-Dec-16 18:16N 40°36' W 074°12'0 0.1
2014-Dec-16 17:31N 40°36' W 074°12'3 2.9
2014-Dec-16 16:34N 40°39' W 074°11'1 0.9
2014-Dec-16 15:28N 40°39' W 074°10'0 0.0
2014-Dec-16 14:31N 40°39' W 074°10'0 0.0
2014-Dec-16 13:28N 40°39' W 074°10'0 0.0
2014-Dec-16 12:28N 40°39' W 074°10'0 0.0
2014-Dec-16 11:25N 40°39' W 074°10'3 3.5
2014-Dec-16 10:29N 40°36' W 074°12'0 0.0
2014-Dec-16 09:32N 40°36' W 074°12'0 0.0
2014-Dec-16 08:26N 40°36' W 074°12'0 0.0
2014-Dec-16 07:32N 40°36' W 074°12'0 0.0
2014-Dec-16 06:26N 40°36' W 074°12'0 0.0
2014-Dec-16 05:20N 40°36' W 074°12'4 1.3
2014-Dec-16 02:33N 40°39' W 074°10'5 3.7
2014-Dec-16 01:05N 40°39' W 074°02'0 0.0
2014-Dec-15 23:32N 40°39' W 074°02'0 0.0
2014-Dec-15 22:32N 40°39' W 074°02'0 0.2
2014-Dec-15 21:32N 40°39' W 074°02'0 0.1
2014-Dec-15 20:32N 40°39' W 074°02'6 5.9
2014-Dec-15 19:33N 40°39' W 074°10'0 0.0
2014-Dec-15 18:33N 40°39' W 074°10'0 0.0
2014-Dec-15 17:33N 40°39' W 074°10'6 5.8
2014-Dec-15 16:33N 40°39' W 074°02'6 5.9
2014-Dec-15 15:33N 40°33' W 074°02'8 8.3
2014-Dec-15 14:33N 40°29' W 073°52'9 8.9
2014-Dec-15 13:32N 40°29' W 073°41'9 9.1
2014-Dec-15 12:33N 40°31' W 073°29'9 9.0
2014-Dec-15 11:33N 40°33' W 073°18'9 9.0
2014-Dec-15 10:33N 40°36' W 073°07'9 9.0
2014-Dec-15 09:33N 40°40' W 072°56'9 9.1
2014-Dec-15 08:33N 40°43' W 072°45'9 9.1
2014-Dec-15 07:33N 40°47' W 072°33'9 9.1
2014-Dec-15 06:34N 40°50' W 072°22'9 9.3
2014-Dec-15 05:33N 40°54' W 072°11'10 9.5
2014-Dec-15 04:33N 40°57' W 071°59'10 9.6
2014-Dec-15 03:34N 41°01' W 071°47'10 9.6
2014-Dec-15 02:33N 41°05' W 071°36'9 9.2
2014-Dec-15 01:33N 41°09' W 071°25'9 9.0
2014-Dec-15 00:33N 41°15' W 071°16'9 9.4
2014-Dec-14 23:34N 41°22' W 071°08'9 9.3
2014-Dec-14 22:33N 41°28' W 070°58'  
2014-Dec-11 06:31N 42°23' W 070°51'53 5.7
2014-Dec-10 21:13N 41°30' W 070°53'5 7.1
2014-Dec-10 20:33N 41°28' W 070°59'6 6.2
2014-Dec-10 19:33N 41°25' W 071°06'  
Track history (hours):
 
Tides and Currents Weather Stations Pressure Air Temp Water Temp Dewpoint Dewpoint Depression Visibility Wind Speed Wind Dir Waves Ship Positions

Tasman Sea

Owner: Kirby Offshore Marine, LLC, Staten Island, NY. More information available from US FCC via Universal Licensing System and Coast Guard Vessel Documentation Center.

Last reported at 2014-Dec-20 19:33 UTC. Time now 2014-Dec-22 19:55 UTC.
Position N 42°23' W 070°51'.

Length 38 m; draft 5 m.

Type: Tug. MMSI: 366910960.

Date/timePositionNaut miles runAvg speedWind from/ knotsBaromVisibWave heightAir tempDewpointWater temp
2014-Dec-20 19:33N 42°23' W 070°51'50 5.6
2014-Dec-20 10:32N 41°33' W 070°46'8 7.5
2014-Dec-20 09:30N 41°29' W 070°55'7 7.8
2014-Dec-20 08:34N 41°25' W 071°03'7 7.3
2014-Dec-20 07:34N 41°19' W 071°09'7 7.2
2014-Dec-20 06:33N 41°13' W 071°14'7 7.0
2014-Dec-20 05:34N 41°09' W 071°21'7 7.0
2014-Dec-20 04:33N 41°06' W 071°30'7 7.1
2014-Dec-20 03:33N 41°04' W 071°39'7 7.1
2014-Dec-20 02:33N 41°01' W 071°47'7 6.9
2014-Dec-20 01:33N 40°58' W 071°56'7 7.4
2014-Dec-20 00:33N 40°55' W 072°05'8 7.5
2014-Dec-19 23:33N 40°53' W 072°14'7 7.4
2014-Dec-19 22:33N 40°50' W 072°23'7 7.3
2014-Dec-19 21:33N 40°47' W 072°32'7 7.2
2014-Dec-19 20:33N 40°44' W 072°41'30 7.1
2014-Dec-19 16:19N 40°33' W 073°18'7 7.2
2014-Dec-19 15:23N 40°32' W 073°26'7 7.5
2014-Dec-19 14:28N 40°30' W 073°35'7 7.5
2014-Dec-19 13:30N 40°29' W 073°44'7 7.6
2014-Dec-19 12:33N 40°27' W 073°54'15 6.6
2014-Dec-19 10:13N 40°30' W 074°13'7 0.4
2014-Dec-18 17:25N 40°37' W 074°12'5 6.1
2014-Dec-18 16:33N 40°39' W 074°06'3 3.0
2014-Dec-18 15:30N 40°40' W 074°02'0 0.0
2014-Dec-18 14:30N 40°40' W 074°02'0 0.0
2014-Dec-18 13:33N 40°40' W 074°02'0 0.0
2014-Dec-18 12:33N 40°40' W 074°02'0 0.2
2014-Dec-18 11:33N 40°40' W 074°02'0 0.0
2014-Dec-18 10:33N 40°40' W 074°02'0 0.0
2014-Dec-18 09:30N 40°40' W 074°02'0 0.0
2014-Dec-18 08:32N 40°40' W 074°02'0 0.1
2014-Dec-18 07:32N 40°40' W 074°02'0 0.2
2014-Dec-18 06:32N 40°40' W 074°02'0 0.1
2014-Dec-18 05:32N 40°40' W 074°02'0 0.0
2014-Dec-18 04:32N 40°40' W 074°02'0 0.0
2014-Dec-18 03:32N 40°40' W 074°02'0 0.0
2014-Dec-18 02:32N 40°40' W 074°02'0 0.0
2014-Dec-18 01:32N 40°40' W 074°02'0 0.0
2014-Dec-18 00:32N 40°40' W 074°02'0 0.1
2014-Dec-17 23:32N 40°40' W 074°02'0 0.2
2014-Dec-17 22:32N 40°40' W 074°02'0 0.1
2014-Dec-17 21:32N 40°40' W 074°02'0 0.1
2014-Dec-17 20:32N 40°40' W 074°02'0 0.0
2014-Dec-17 19:32N 40°40' W 074°02'0 0.1
2014-Dec-17 18:29N 40°40' W 074°02'0 0.1
2014-Dec-17 17:32N 40°40' W 074°02'0 0.0
2014-Dec-17 16:32N 40°40' W 074°02'0 0.0
2014-Dec-17 15:32N 40°40' W 074°02'0 0.0
2014-Dec-17 14:32N 40°40' W 074°02'0 0.0
2014-Dec-17 13:32N 40°40' W 074°02'0 0.0
2014-Dec-17 12:29N 40°40' W 074°02'0 0.1
2014-Dec-17 11:32N 40°40' W 074°02'0 0.2
2014-Dec-17 10:32N 40°40' W 074°02'0 0.0
2014-Dec-17 09:32N 40°40' W 074°02'0 0.0
2014-Dec-17 08:29N 40°40' W 074°02'0 0.0
2014-Dec-17 07:32N 40°40' W 074°02'0 0.2
2014-Dec-17 06:32N 40°40' W 074°02'0 0.1
2014-Dec-17 05:32N 40°40' W 074°02'0 0.0
2014-Dec-17 04:32N 40°40' W 074°02'0 0.0
2014-Dec-17 03:32N 40°40' W 074°02'0 0.0
2014-Dec-17 02:32N 40°40' W 074°02'0 0.0
2014-Dec-17 01:32N 40°40' W 074°02'0 0.0
2014-Dec-17 00:32N 40°40' W 074°02'0 0.0
2014-Dec-16 23:32N 40°40' W 074°02'0 0.2
2014-Dec-16 22:32N 40°40' W 074°02'0 0.0
2014-Dec-16 21:32N 40°40' W 074°02'1 1.1
2014-Dec-16 20:33N 40°40' W 074°03'6 5.5
2014-Dec-16 19:33N 40°39' W 074°10'3 2.4
2014-Dec-16 18:16N 40°36' W 074°12'0 0.1
2014-Dec-16 17:31N 40°36' W 074°12'3 2.9
2014-Dec-16 16:34N 40°39' W 074°11'1 0.9
2014-Dec-16 15:28N 40°39' W 074°10'0 0.0
2014-Dec-16 14:31N 40°39' W 074°10'0 0.0
2014-Dec-16 13:28N 40°39' W 074°10'0 0.0
2014-Dec-16 12:28N 40°39' W 074°10'0 0.0
2014-Dec-16 11:25N 40°39' W 074°10'3 3.5
2014-Dec-16 10:29N 40°36' W 074°12'0 0.0
2014-Dec-16 09:32N 40°36' W 074°12'0 0.0
2014-Dec-16 08:26N 40°36' W 074°12'0 0.0
2014-Dec-16 07:32N 40°36' W 074°12'0 0.0
2014-Dec-16 06:26N 40°36' W 074°12'0 0.0
2014-Dec-16 05:20N 40°36' W 074°12'4 1.3
2014-Dec-16 02:33N 40°39' W 074°10'5 3.7
2014-Dec-16 01:05N 40°39' W 074°02'0 0.0
2014-Dec-15 23:32N 40°39' W 074°02'0 0.0
2014-Dec-15 22:32N 40°39' W 074°02'0 0.2
2014-Dec-15 21:32N 40°39' W 074°02'0 0.1
2014-Dec-15 20:32N 40°39' W 074°02'6 5.9
2014-Dec-15 19:33N 40°39' W 074°10'0 0.0
2014-Dec-15 18:33N 40°39' W 074°10'0 0.0
2014-Dec-15 17:33N 40°39' W 074°10'6 5.8
2014-Dec-15 16:33N 40°39' W 074°02'6 5.9
2014-Dec-15 15:33N 40°33' W 074°02'8 8.3
2014-Dec-15 14:33N 40°29' W 073°52'9 8.9
2014-Dec-15 13:32N 40°29' W 073°41'9 9.1
2014-Dec-15 12:33N 40°31' W 073°29'9 9.0
2014-Dec-15 11:33N 40°33' W 073°18'9 9.0
2014-Dec-15 10:33N 40°36' W 073°07'9 9.0
2014-Dec-15 09:33N 40°40' W 072°56'9 9.1
2014-Dec-15 08:33N 40°43' W 072°45'9 9.1
2014-Dec-15 07:33N 40°47' W 072°33'9 9.1
2014-Dec-15 06:34N 40°50' W 072°22'9 9.3
2014-Dec-15 05:33N 40°54' W 072°11'10 9.5
2014-Dec-15 04:33N 40°57' W 071°59'10 9.6
2014-Dec-15 03:34N 41°01' W 071°47'10 9.6
2014-Dec-15 02:33N 41°05' W 071°36'9 9.2
2014-Dec-15 01:33N 41°09' W 071°25'9 9.0
2014-Dec-15 00:33N 41°15' W 071°16'9 9.4
2014-Dec-14 23:34N 41°22' W 071°08'9 9.3
2014-Dec-14 22:33N 41°28' W 070°58'  
2014-Dec-11 06:31N 42°23' W 070°51'53 5.7
2014-Dec-10 21:13N 41°30' W 070°53'5 7.1
2014-Dec-10 20:33N 41°28' W 070°59'6 6.2
2014-Dec-10 19:33N 41°25' W 071°06'  

Dump ship's entire track history